Time;durP1;ratioP1;P1;durP2;ratioP2;P2;SDS_P1;SDS_P2;PMS_P1;PMS_P2;Temp;Humidity;BMP_temperature;BMP_pressure;BME280_temperature;BME280_humidity;BME280_pressure;Samples;Min_cycle;Max_cycle;Signal;HPM_P1;HPM_P2
2022/07/07 00:00:02;;;;;;;2.70;1.42;;;20.30;79.10;;;;;;6212170;23;20161;-86
2022/07/07 00:02:30;;;;;;;2.90;1.30;;;20.30;78.90;;;;;;6212468;23;20196;-77
2022/07/07 00:04:56;;;;;;;3.25;1.30;;;20.30;79.10;;;;;;6213296;23;20215;-86
2022/07/07 00:07:22;;;;;;;3.08;1.40;;;20.30;79.30;;;;;;6213704;23;20228;-81
2022/07/07 00:09:49;;;;;;;2.40;1.30;;;20.30;79.60;;;;;;6213120;23;20157;-80
2022/07/07 00:12:18;;;;;;;1.83;1.35;;;20.30;79.70;;;;;;6214287;23;20184;-81
2022/07/07 00:14:46;;;;;;;1.60;1.20;;;20.30;79.90;;;;;;6214186;23;20339;-84
2022/07/07 00:17:14;;;;;;;1.60;1.35;;;20.20;80.20;;;;;;6215114;23;20157;-79
2022/07/07 00:19:42;;;;;;;2.10;1.33;;;20.20;80.50;;;;;;6217407;23;20184;-85
2022/07/07 00:22:10;;;;;;;2.47;1.23;;;20.20;80.40;;;;;;6215834;23;20150;-84
2022/07/07 00:24:37;;;;;;;2.42;1.50;;;20.20;80.60;;;;;;6215078;23;20158;-82
2022/07/07 00:27:03;;;;;;;3.25;1.55;;;20.10;80.60;;;;;;6212954;23;20149;-88
2022/07/07 00:29:29;;;;;;;2.35;1.30;;;20.10;80.80;;;;;;6213663;23;20205;-80
2022/07/07 00:31:55;;;;;;;2.25;1.30;;;20.10;81.10;;;;;;6214612;23;20161;-82
2022/07/07 00:34:20;;;;;;;1.52;1.23;;;20.10;81.20;;;;;;6212495;23;20253;-79
2022/07/07 00:36:49;;;;;;;1.33;1.20;;;20.10;81.50;;;;;;6215060;23;20146;-88
2022/07/07 00:39:14;;;;;;;1.65;1.25;;;20.10;81.70;;;;;;6215197;23;20153;-85
2022/07/07 00:41:42;;;;;;;2.95;1.38;;;20.00;81.80;;;;;;6216935;23;20161;-83
2022/07/07 00:44:12;;;;;;;2.95;1.55;;;20.00;82.00;;;;;;6217064;23;20164;-82
2022/07/07 00:46:51;;;;;;;1.67;1.27;;;20.00;82.60;;;;;;6217139;23;20177;-82
2022/07/07 00:49:21;;;;;;;3.08;1.25;;;20.00;82.90;;;;;;6216110;23;20211;-84
2022/07/07 00:51:49;;;;;;;2.25;1.40;;;20.00;82.50;;;;;;6215261;23;20149;-78
2022/07/07 00:54:15;;;;;;;2.03;1.50;;;20.00;82.70;;;;;;6215910;23;20153;-86
2022/07/07 00:56:40;;;;;;;1.60;1.50;;;19.90;82.80;;;;;;6216531;23;20240;-87
2022/07/07 00:59:07;;;;;;;1.77;1.48;;;20.00;83.00;;;;;;6215661;23;20154;-86
2022/07/07 01:01:37;;;;;;;3.10;1.33;;;20.00;83.30;;;;;;6215129;23;20176;-83
2022/07/07 01:04:11;;;;;;;2.65;1.33;;;20.00;84.00;;;;;;6215876;23;20156;-78
2022/07/07 01:06:37;;;;;;;2.83;1.40;;;20.00;83.90;;;;;;6224194;23;20142;-70
2022/07/07 01:09:06;;;;;;;2.22;1.40;;;20.00;83.90;;;;;;6229117;23;20189;-85
2022/07/07 01:11:54;;;;;;;2.78;1.65;;;20.00;84.10;;;;;;6215563;23;20168;-87
2022/07/07 01:14:24;;;;;;;1.85;1.40;;;20.10;84.90;;;;;;6214205;23;20220;-85
2022/07/07 01:16:50;;;;;;;2.30;1.40;;;20.00;84.50;;;;;;6214296;23;20231;-81
2022/07/07 01:19:17;;;;;;;1.88;1.50;;;20.10;84.40;;;;;;6215643;23;20153;-85
2022/07/07 01:21:48;;;;;;;2.40;1.65;;;20.10;84.60;;;;;;6216762;23;20225;-87
2022/07/07 01:24:16;;;;;;;2.67;1.60;;;20.10;85.00;;;;;;6214081;23;20153;-75
2022/07/07 01:26:42;;;;;;;1.58;1.27;;;20.10;85.00;;;;;;6215407;23;20220;-82
2022/07/07 01:29:08;;;;;;;1.90;1.30;;;20.10;84.90;;;;;;6214631;23;20189;-80
2022/07/07 01:31:36;;;;;;;1.70;1.30;;;20.00;84.90;;;;;;6214513;23;20177;-78
2022/07/07 01:34:03;;;;;;;2.03;1.40;;;20.00;84.90;;;;;;6214477;23;20141;-85
2022/07/07 01:36:31;;;;;;;1.73;1.17;;;20.10;85.20;;;;;;6188795;23;20149;-82
2022/07/07 01:38:59;;;;;;;1.88;1.40;;;20.10;85.40;;;;;;6188892;23;20191;-87
2022/07/07 01:41:25;;;;;;;2.40;1.48;;;20.00;85.40;;;;;;6189187;23;20220;-84
2022/07/07 01:43:50;;;;;;;3.05;1.20;;;20.00;85.70;;;;;;6189133;23;20153;-87
2022/07/07 01:46:19;;;;;;;2.10;1.20;;;20.00;85.80;;;;;;6188878;23;20236;-85
2022/07/07 01:48:45;;;;;;;1.75;1.20;;;20.10;86.10;;;;;;6189111;23;20239;-87
2022/07/07 01:51:15;;;;;;;3.08;1.58;;;20.10;86.10;;;;;;6189334;23;20165;-84
2022/07/07 01:53:43;;;;;;;1.60;1.20;;;20.10;86.50;;;;;;6190437;23;20160;-87
2022/07/07 01:56:09;;;;;;;1.92;1.27;;;20.10;86.60;;;;;;6189664;23;20149;-81
2022/07/07 01:58:36;;;;;;;2.45;1.40;;;20.10;86.30;;;;;;6189601;23;20185;-84
2022/07/07 02:01:01;;;;;;;3.75;1.80;;;20.10;86.50;;;;;;6189690;23;20232;-83
2022/07/07 02:03:29;;;;;;;3.97;1.50;;;20.10;86.90;;;;;;6190727;23;20181;-82
2022/07/07 02:05:55;;;;;;;2.28;1.40;;;20.10;87.00;;;;;;6191616;23;20223;-76
2022/07/07 02:08:23;;;;;;;2.05;1.48;;;20.00;87.20;;;;;;6191768;23;20189;-76
2022/07/07 02:13:35;;;;;;;2.47;1.40;;;20.00;87.60;;;;;;6217342;23;20260;-85
2022/07/07 02:16:00;;;;;;;1.88;1.60;;;20.00;87.80;;;;;;6189002;23;20200;-87
2022/07/07 02:18:28;;;;;;;2.65;1.45;;;20.00;88.10;;;;;;6188822;23;20154;-82
2022/07/07 02:20:56;;;;;;;2.85;1.50;;;19.90;88.10;;;;;;6189001;23;20236;-84
2022/07/07 02:23:24;;;;;;;2.55;1.50;;;19.90;88.30;;;;;;6188910;23;20157;-85
2022/07/07 02:25:50;;;;;;;1.92;1.48;;;19.90;88.50;;;;;;6189237;23;20181;-82
2022/07/07 02:28:20;;;;;;;1.75;1.40;;;19.90;88.80;;;;;;6189434;23;20236;-84
2022/07/07 02:30:49;;;;;;;3.75;1.60;;;19.90;89.30;;;;;;6189395;23;20168;-81
2022/07/07 02:33:19;;;;;;;2.05;1.50;;;19.90;89.40;;;;;;6190523;23;20149;-83
2022/07/07 02:35:46;;;;;;;1.80;1.35;;;19.80;89.30;;;;;;6208965;23;20188;-87
2022/07/07 02:38:12;;;;;;;3.90;1.70;;;19.80;89.50;;;;;;6214987;23;20157;-86
2022/07/07 02:40:37;;;;;;;3.50;1.27;;;19.80;89.70;;;;;;6214964;23;20230;-74
2022/07/07 02:43:03;;;;;;;2.38;1.40;;;19.80;89.80;;;;;;6215161;23;20200;-78
2022/07/07 02:45:31;;;;;;;1.75;1.23;;;19.80;90.00;;;;;;6230499;23;20145;-67
2022/07/07 02:47:57;;;;;;;1.50;1.23;;;19.80;90.10;;;;;;6224247;23;20185;-82
2022/07/07 02:50:22;;;;;;;2.70;1.27;;;19.80;90.20;;;;;;6215655;23;20391;-85
2022/07/07 02:52:48;;;;;;;1.88;1.45;;;19.80;90.20;;;;;;6215380;23;20240;-85
2022/07/07 02:55:16;;;;;;;2.55;1.60;;;19.80;90.30;;;;;;6212997;23;20150;-86
2022/07/07 02:57:44;;;;;;;2.53;1.35;;;19.80;90.60;;;;;;6214046;23;20236;-82
2022/07/07 03:00:13;;;;;;;2.03;1.50;;;19.80;90.50;;;;;;6213695;23;20211;-87
2022/07/07 03:02:38;;;;;;;4.88;1.73;;;19.80;90.70;;;;;;6213752;23;20158;-87
2022/07/07 03:05:04;;;;;;;2.08;1.45;;;19.80;90.60;;;;;;6214585;23;20157;-83
2022/07/07 03:07:30;;;;;;;1.95;1.30;;;19.80;90.60;;;;;;6212792;23;20183;-87
2022/07/07 03:09:58;;;;;;;1.48;1.13;;;19.80;90.70;;;;;;6212860;23;20244;-85
2022/07/07 03:12:23;;;;;;;2.83;1.45;;;19.80;90.80;;;;;;6213840;23;20164;-84
2022/07/07 03:14:49;;;;;;;2.60;1.50;;;19.80;90.90;;;;;;6212647;23;20490;-84
2022/07/07 03:17:15;;;;;;;2.75;1.50;;;19.80;90.90;;;;;;6214274;23;20141;-89
2022/07/07 03:19:40;;;;;;;2.60;1.50;;;19.80;91.00;;;;;;6213413;23;20278;-81
2022/07/07 03:22:08;;;;;;;2.75;1.40;;;19.80;91.10;;;;;;6213276;23;20150;-81
2022/07/07 03:24:36;;;;;;;1.83;1.27;;;19.80;91.20;;;;;;6213164;23;20161;-88
2022/07/07 03:27:02;;;;;;;1.77;1.30;;;19.80;91.30;;;;;;6214145;23;20145;-84
2022/07/07 03:29:27;;;;;;;2.40;1.30;;;19.80;91.40;;;;;;6212772;23;20204;-80
2022/07/07 03:31:55;;;;;;;1.92;1.50;;;19.80;91.40;;;;;;6214964;23;20243;-86
2022/07/07 03:34:23;;;;;;;2.20;1.25;;;19.80;91.50;;;;;;6219771;23;20194;-78
2022/07/07 03:36:51;;;;;;;2.67;1.40;;;19.80;91.70;;;;;;6227589;23;20161;-72
2022/07/07 03:39:19;;;;;;;3.10;1.65;;;19.80;91.80;;;;;;6220443;23;20130;-82
2022/07/07 03:41:44;;;;;;;1.52;1.20;;;19.80;92.00;;;;;;6218331;23;20161;-88
2022/07/07 03:44:10;;;;;;;2.47;1.48;;;19.80;92.00;;;;;;6216067;23;20207;-84
2022/07/07 03:46:36;;;;;;;2.45;1.15;;;19.80;92.20;;;;;;6218553;23;20184;-85
2022/07/07 03:49:02;;;;;;;3.05;1.35;;;19.80;92.30;;;;;;6215080;23;20228;-80
2022/07/07 03:51:29;;;;;;;2.15;1.50;;;19.80;92.30;;;;;;6213306;23;20207;-89
2022/07/07 03:53:55;;;;;;;2.05;1.40;;;19.80;92.40;;;;;;6213787;23;20351;-84
2022/07/07 03:56:21;;;;;;;1.95;1.42;;;19.80;92.50;;;;;;6213427;23;20150;-81
2022/07/07 03:58:49;;;;;;;2.15;1.42;;;19.80;92.70;;;;;;6214728;23;20157;-84
2022/07/07 04:01:15;;;;;;;2.35;1.27;;;19.80;92.80;;;;;;6224587;23;20153;-81
2022/07/07 04:03:42;;;;;;;2.22;1.40;;;19.80;92.90;;;;;;6218395;23;20188;-84
2022/07/07 04:06:10;;;;;;;2.13;1.50;;;19.80;93.10;;;;;;6214675;23;20193;-87
2022/07/07 04:08:36;;;;;;;1.33;1.17;;;19.80;93.20;;;;;;6214122;23;20192;-84
2022/07/07 04:11:06;;;;;;;3.25;1.40;;;19.80;93.30;;;;;;6215217;23;20276;-80
2022/07/07 04:13:32;;;;;;;2.17;1.17;;;19.80;93.40;;;;;;6215339;23;20173;-84
2022/07/07 04:16:00;;;;;;;2.22;1.20;;;19.80;93.40;;;;;;6214301;23;20149;-81
2022/07/07 04:18:28;;;;;;;1.80;1.40;;;19.80;93.70;;;;;;6214266;23;20176;-78
2022/07/07 04:20:56;;;;;;;2.85;1.30;;;19.90;94.00;;;;;;6215366;23;20458;-81
2022/07/07 04:23:21;;;;;;;1.70;1.20;;;19.90;93.90;;;;;;6215518;23;20220;-81
2022/07/07 04:25:49;;;;;;;1.65;1.30;;;19.90;94.20;;;;;;6215497;23;20204;-87
2022/07/07 04:28:15;;;;;;;2.83;1.40;;;19.90;94.30;;;;;;6214148;23;20185;-85
2022/07/07 04:30:41;;;;;;;3.55;1.60;;;19.90;94.50;;;;;;6215282;23;20181;-88
2022/07/07 04:33:07;;;;;;;1.83;1.30;;;20.00;94.60;;;;;;6214620;23;20168;-78
2022/07/07 04:35:32;;;;;;;1.60;1.20;;;20.00;94.90;;;;;;6215823;23;20173;-84
2022/07/07 04:38:00;;;;;;;1.88;1.50;;;20.00;95.00;;;;;;6215223;23;20212;-86
2022/07/07 04:40:28;;;;;;;5.10;1.70;;;20.00;95.10;;;;;;6214587;23;20205;-84
2022/07/07 04:42:56;;;;;;;1.77;1.42;;;20.00;95.80;;;;;;6215802;23;20164;-82
2022/07/07 04:45:22;;;;;;;2.50;1.50;;;20.00;95.70;;;;;;6214323;23;20179;-81
2022/07/07 04:47:50;;;;;;;2.10;1.38;;;20.00;95.80;;;;;;6215960;23;20335;-83
2022/07/07 04:50:16;;;;;;;2.22;1.20;;;20.10;96.60;;;;;;6214623;23;20177;-81
2022/07/07 04:52:44;;;;;;;2.63;1.30;;;20.10;96.30;;;;;;6215851;23;20258;-90
2022/07/07 04:55:09;;;;;;;2.20;1.40;;;20.10;96.60;;;;;;6214086;23;20158;-78
2022/07/07 04:57:35;;;;;;;2.75;1.48;;;20.10;96.50;;;;;;6214060;23;20162;-84
2022/07/07 05:00:01;;;;;;;1.88;1.38;;;20.10;96.80;;;;;;6214775;23;20164;-79
2022/07/07 05:02:29;;;;;;;1.60;1.30;;;20.20;97.10;;;;;;6214355;23;20252;-83
2022/07/07 05:04:56;;;;;;;1.63;1.45;;;20.20;97.10;;;;;;6215006;23;20160;-82
2022/07/07 05:07:22;;;;;;;2.10;1.40;;;20.20;97.50;;;;;;6215296;23;20178;-87
2022/07/07 05:09:48;;;;;;;2.78;1.23;;;20.20;97.30;;;;;;6216002;23;20153;-81
2022/07/07 05:12:14;;;;;;;2.55;1.45;;;20.20;97.50;;;;;;6216918;23;20150;-82
2022/07/07 05:14:40;;;;;;;1.67;1.10;;;20.20;97.70;;;;;;6218965;23;20150;-82
2022/07/07 05:17:07;;;;;;;4.47;1.30;;;20.30;97.70;;;;;;6216798;23;20157;-83
2022/07/07 05:19:33;;;;;;;2.20;1.40;;;20.30;97.80;;;;;;6215031;23;20161;-87
2022/07/07 05:22:01;;;;;;;2.03;1.30;;;20.30;98.10;;;;;;6214802;23;20180;-89
2022/07/07 05:24:29;;;;;;;3.35;1.30;;;20.30;98.20;;;;;;6215073;23;20251;-89
2022/07/07 05:26:57;;;;;;;1.80;1.13;;;20.30;98.30;;;;;;6217711;23;20267;-86
2022/07/07 05:29:26;;;;;;;1.55;1.10;;;20.40;98.30;;;;;;6215617;23;20249;-83
2022/07/07 05:31:52;;;;;;;2.35;1.35;;;20.40;98.20;;;;;;6224281;23;20141;-68
2022/07/07 05:34:17;;;;;;;2.20;1.20;;;20.40;98.40;;;;;;6236645;23;20181;-86
2022/07/07 05:36:47;;;;;;;2.20;1.20;;;20.40;98.40;;;;;;6217543;23;20227;-88
2022/07/07 05:39:13;;;;;;;2.03;1.52;;;20.30;98.40;;;;;;6215496;23;20154;-81
2022/07/07 05:41:45;;;;;;;2.83;1.35;;;20.30;98.60;;;;;;6214034;23;20188;-81
2022/07/07 05:44:10;;;;;;;1.50;1.20;;;20.30;99.00;;;;;;6214499;23;20160;-84
2022/07/07 05:46:36;;;;;;;2.63;1.55;;;20.30;98.70;;;;;;6214622;23;20157;-89
2022/07/07 05:49:02;;;;;;;1.45;1.02;;;20.30;98.90;;;;;;6214644;23;20320;-86
2022/07/07 05:51:27;;;;;;;1.70;1.10;;;20.30;99.00;;;;;;6215698;23;20184;-84
2022/07/07 05:53:53;;;;;;;1.85;1.25;;;20.30;99.10;;;;;;6217384;23;20150;-86
2022/07/07 05:56:22;;;;;;;2.83;1.40;;;20.30;99.40;;;;;;6216664;23;20328;-86
2022/07/07 05:58:47;;;;;;;2.95;1.35;;;20.20;99.60;;;;;;6217827;23;20181;-81
2022/07/07 06:01:13;;;;;;;1.98;1.30;;;20.30;99.70;;;;;;6220431;23;20189;-84
2022/07/07 06:03:39;;;;;;;2.53;1.58;;;20.20;99.80;;;;;;6216037;23;20153;-84
2022/07/07 06:06:04;;;;;;;2.38;1.42;;;20.30;99.90;;;;;;6217219;23;20154;-90
2022/07/07 06:08:30;;;;;;;2.65;1.40;;;20.30;99.90;;;;;;6214374;23;20217;-90
2022/07/07 06:10:58;;;;;;;1.70;1.20;;;20.30;99.90;;;;;;6215068;23;20153;-87
2022/07/07 06:13:24;;;;;;;1.67;1.48;;;20.30;99.90;;;;;;6216377;23;20153;-78
2022/07/07 06:15:49;;;;;;;1.92;1.50;;;20.30;99.90;;;;;;6215063;23;20166;-83
2022/07/07 06:18:15;;;;;;;2.20;1.20;;;20.30;99.90;;;;;;6214798;23;20180;-80
2022/07/07 06:20:41;;;;;;;2.47;1.50;;;20.30;99.90;;;;;;6214248;23;20253;-88
2022/07/07 06:23:10;;;;;;;2.13;1.50;;;20.30;99.90;;;;;;6214227;23;20161;-82
2022/07/07 06:25:40;;;;;;;2.03;1.23;;;20.30;99.90;;;;;;6214161;23;20169;-81
2022/07/07 06:28:08;;;;;;;2.40;1.27;;;20.30;99.90;;;;;;6213816;23;20184;-88
2022/07/07 06:30:36;;;;;;;3.42;1.60;;;20.30;99.90;;;;;;6213812;23;20176;-82
2022/07/07 06:33:01;;;;;;;3.67;2.08;;;20.30;99.90;;;;;;6214364;23;20449;-84
2022/07/07 06:35:27;;;;;;;4.70;1.77;;;20.20;99.90;;;;;;6212806;23;20192;-77
2022/07/07 06:37:53;;;;;;;3.08;1.80;;;20.20;99.90;;;;;;6213982;23;20161;-91
2022/07/07 06:40:19;;;;;;;2.28;1.80;;;20.10;99.90;;;;;;6214033;23;20176;-80
2022/07/07 06:42:45;;;;;;;3.35;1.45;;;20.00;99.90;;;;;;6214253;23;20157;-86
2022/07/07 06:45:15;;;;;;;1.95;1.50;;;19.90;99.90;;;;;;6214084;23;20216;-78
2022/07/07 06:47:41;;;;;;;3.67;1.67;;;19.80;99.90;;;;;;6213981;23;20169;-84
2022/07/07 06:50:09;;;;;;;2.78;1.65;;;19.70;99.90;;;;;;6213552;23;20221;-79
2022/07/07 06:52:38;;;;;;;2.47;1.83;;;19.60;99.90;;;;;;6213576;23;20160;-81
2022/07/07 06:55:07;;;;;;;2.10;1.70;;;19.50;99.90;;;;;;6213541;23;20268;-86
2022/07/07 06:57:33;;;;;;;2.38;1.80;;;19.40;99.90;;;;;;6213644;23;20228;-86
2022/07/07 06:59:59;;;;;;;2.55;1.88;;;19.30;99.90;;;;;;6214237;23;20153;-80
2022/07/07 07:02:25;;;;;;;2.17;1.88;;;19.30;99.90;;;;;;6212563;23;20153;-86
2022/07/07 07:04:54;;;;;;;3.38;1.90;;;19.10;99.90;;;;;;6214334;23;20185;-72
2022/07/07 07:07:19;;;;;;;1.42;1.30;;;19.10;99.90;;;;;;6212248;23;20216;-72
2022/07/07 07:09:45;;;;;;;3.05;1.50;;;19.00;99.90;;;;;;6213883;23;20157;-72
2022/07/07 07:12:11;;;;;;;2.70;1.40;;;19.00;99.90;;;;;;6214271;23;20203;-71
2022/07/07 07:14:37;;;;;;;1.80;1.10;;;19.10;99.90;;;;;;6213248;23;20169;-73
2022/07/07 07:17:02;;;;;;;1.27;1.02;;;19.10;99.90;;;;;;6212651;23;20168;-70
2022/07/07 07:19:28;;;;;;;1.80;1.10;;;19.10;99.90;;;;;;6215898;23;20325;-74
2022/07/07 07:21:56;;;;;;;3.97;1.50;;;19.10;99.90;;;;;;6213853;23;20284;-70
2022/07/07 07:24:24;;;;;;;2.35;1.48;;;19.20;99.90;;;;;;6213585;23;20153;-71
2022/07/07 07:26:50;;;;;;;3.05;1.23;;;19.20;99.90;;;;;;6216476;23;20169;-72
2022/07/07 07:29:15;;;;;;;1.70;1.08;;;19.20;99.90;;;;;;6213902;23;20192;-72
2022/07/07 07:31:41;;;;;;;1.42;0.95;;;19.30;99.90;;;;;;6212944;23;20291;-71
2022/07/07 07:34:08;;;;;;;1.98;1.13;;;19.30;99.90;;;;;;6215283;23;20319;-68
2022/07/07 07:36:33;;;;;;;1.60;1.08;;;19.40;99.90;;;;;;6196293;23;20176;-72
2022/07/07 07:39:04;;;;;;;1.92;1.00;;;19.50;99.90;;;;;;6188841;23;20181;-72
2022/07/07 07:41:30;;;;;;;1.50;1.10;;;19.60;99.90;;;;;;6194471;23;20162;-72
2022/07/07 07:43:55;;;;;;;2.10;1.00;;;19.60;99.90;;;;;;6216283;23;20145;-72
2022/07/07 07:46:21;;;;;;;1.63;1.10;;;19.70;99.90;;;;;;6192018;23;20189;-71
2022/07/07 07:48:49;;;;;;;1.50;0.80;;;19.80;99.90;;;;;;6190547;23;20254;-72
2022/07/07 07:51:14;;;;;;;1.67;0.98;;;19.80;99.90;;;;;;6190327;23;20284;-72
2022/07/07 07:53:42;;;;;;;1.80;1.10;;;19.90;99.90;;;;;;6191825;23;20150;-73
2022/07/07 07:56:08;;;;;;;2.08;0.88;;;20.00;99.90;;;;;;6189762;23;20149;-73
2022/07/07 07:58:34;;;;;;;0.95;0.75;;;20.10;99.90;;;;;;6192649;23;20203;-70
2022/07/07 08:01:00;;;;;;;1.75;0.95;;;20.20;99.90;;;;;;6190491;23;20164;-71
2022/07/07 08:03:28;;;;;;;1.63;0.88;;;20.20;99.90;;;;;;6189739;23;20161;-72
2022/07/07 08:05:53;;;;;;;1.50;0.90;;;20.30;99.90;;;;;;6191892;23;20173;-72
2022/07/07 08:08:19;;;;;;;1.80;1.17;;;20.30;99.90;;;;;;6197375;23;20244;-71
2022/07/07 08:10:47;;;;;;;2.13;1.00;;;20.40;99.90;;;;;;6189539;23;20156;-72
2022/07/07 08:13:13;;;;;;;1.10;0.80;;;20.40;99.90;;;;;;6218363;23;20205;-72
2022/07/07 08:15:38;;;;;;;1.35;1.00;;;20.40;99.90;;;;;;6188688;23;20219;-71
2022/07/07 08:18:04;;;;;;;0.98;0.90;;;20.40;99.90;;;;;;6192417;23;20216;-72
2022/07/07 08:20:30;;;;;;;1.67;0.90;;;20.40;99.90;;;;;;6189321;23;20172;-72
2022/07/07 08:22:55;;;;;;;1.60;1.17;;;20.40;99.90;;;;;;6188712;23;20421;-71
2022/07/07 08:25:21;;;;;;;1.88;1.30;;;20.40;99.90;;;;;;6188598;23;20476;-72
2022/07/07 08:27:47;;;;;;;2.25;1.40;;;20.40;99.90;;;;;;6188505;23;20192;-72
2022/07/07 08:30:13;;;;;;;2.25;1.45;;;20.40;99.90;;;;;;6189007;23;20166;-72
2022/07/07 08:32:39;;;;;;;2.42;1.13;;;20.40;99.90;;;;;;6188278;23;20184;-71
2022/07/07 08:35:06;;;;;;;2.28;1.33;;;20.40;99.90;;;;;;6200714;23;20228;-70
2022/07/07 08:37:31;;;;;;;2.55;1.10;;;20.40;99.90;;;;;;6214357;23;20164;-73
2022/07/07 08:39:57;;;;;;;1.40;0.80;;;20.40;99.90;;;;;;6213210;23;20181;-71
2022/07/07 08:42:26;;;;;;;1.38;0.70;;;20.30;99.90;;;;;;6214241;23;20149;-70
2022/07/07 08:44:51;;;;;;;2.17;0.60;;;20.10;99.90;;;;;;6214897;23;20149;-71
2022/07/07 08:47:17;;;;;;;0.30;0.30;;;19.80;99.90;;;;;;6213897;23;20153;-70
2022/07/07 08:49:43;;;;;;;0.57;0.40;;;19.50;99.90;;;;;;6214401;23;20197;-70
2022/07/07 08:52:09;;;;;;;1.05;0.38;;;19.30;99.90;;;;;;6214007;23;20157;-71
2022/07/07 08:54:39;;;;;;;0.80;0.50;;;19.00;99.90;;;;;;6214267;23;20153;-71
2022/07/07 08:57:08;;;;;;;3.30;0.75;;;18.90;99.90;;;;;;6213856;23;20179;-70
2022/07/07 08:59:43;;;;;;;2.15;1.00;;;18.70;99.90;;;;;;6214226;23;20239;-71
2022/07/07 09:02:09;;;;;;;1.38;0.80;;;18.60;99.90;;;;;;6214157;23;20155;-70
2022/07/07 09:04:37;;;;;;;2.60;0.90;;;18.60;99.90;;;;;;6213819;23;20232;-71
2022/07/07 09:07:07;;;;;;;2.00;1.02;;;18.60;99.90;;;;;;6215970;23;20240;-71
2022/07/07 09:09:48;;;;;;;2.50;1.23;;;18.70;99.90;;;;;;6217362;23;20188;-69
2022/07/07 09:12:16;;;;;;;3.03;1.20;;;18.80;99.90;;;;;;6214559;23;20473;-69
2022/07/07 09:14:47;;;;;;;3.72;1.48;;;18.90;99.90;;;;;;6214512;23;20161;-72
2022/07/07 09:17:31;;;;;;;2.92;1.35;;;19.00;99.90;;;;;;6213314;23;20177;-72
2022/07/07 09:20:07;;;;;;;2.70;1.65;;;19.20;99.90;;;;;;6217833;23;20201;-67
2022/07/07 09:22:53;;;;;;;2.83;1.90;;;19.40;99.90;;;;;;6216867;23;20145;-72
2022/07/07 09:25:29;;;;;;;4.00;2.45;;;19.60;99.90;;;;;;6214709;23;20173;-73
2022/07/07 09:28:02;;;;;;;4.47;1.80;;;19.70;99.90;;;;;;6213503;23;20180;-72
2022/07/07 09:30:36;;;;;;;2.83;2.00;;;19.80;99.90;;;;;;6217297;23;20145;-71
2022/07/07 09:33:08;;;;;;;4.95;1.95;;;19.90;99.90;;;;;;6214300;23;20142;-72
2022/07/07 09:38:31;;;;;;;4.18;1.50;;;20.10;99.90;;;;;;6219424;23;20217;-72
2022/07/07 09:41:05;;;;;;;1.63;1.00;;;20.10;99.90;;;;;;6213818;23;20149;-72
2022/07/07 09:43:56;;;;;;;2.63;1.00;;;20.10;99.90;;;;;;6213812;23;20180;-71
2022/07/07 09:46:22;;;;;;;1.25;0.90;;;20.00;99.90;;;;;;6213266;23;20160;-72
2022/07/07 09:48:57;;;;;;;2.90;1.13;;;20.00;99.90;;;;;;6213608;23;20192;-71
2022/07/07 09:51:30;;;;;;;3.58;1.15;;;19.90;99.90;;;;;;6213631;23;20180;-71
2022/07/07 09:54:04;;;;;;;3.38;1.15;;;19.90;99.90;;;;;;6213664;23;20161;-72
2022/07/07 09:56:31;;;;;;;2.78;1.00;;;19.90;99.90;;;;;;6213501;23;20330;-73
2022/07/07 09:58:58;;;;;;;1.38;0.75;;;19.90;99.90;;;;;;6214908;23;20150;-71
2022/07/07 10:01:26;;;;;;;1.33;0.70;;;20.00;99.90;;;;;;6214644;23;20184;-69
2022/07/07 10:04:07;;;;;;;2.28;0.70;;;20.10;99.90;;;;;;6212791;23;20447;-70
2022/07/07 10:06:39;;;;;;;1.60;0.88;;;20.20;99.90;;;;;;6213608;23;20206;-71
2022/07/07 10:09:06;;;;;;;2.50;0.90;;;20.30;99.90;;;;;;6213095;23;20191;-71
2022/07/07 10:11:37;;;;;;;1.55;0.90;;;20.40;99.90;;;;;;6213092;23;20165;-71
2022/07/07 10:14:19;;;;;;;4.22;1.05;;;20.50;99.90;;;;;;6213834;23;20424;-71
2022/07/07 10:16:49;;;;;;;3.20;0.90;;;20.60;99.90;;;;;;6213135;23;20232;-71
2022/07/07 10:19:19;;;;;;;1.52;0.68;;;20.60;99.90;;;;;;6212836;23;20177;-71
2022/07/07 10:21:56;;;;;;;1.90;0.82;;;20.50;99.90;;;;;;6212704;23;20237;-71
2022/07/07 10:24:27;;;;;;;4.28;1.13;;;20.40;99.90;;;;;;6213542;23;20148;-72
2022/07/07 10:27:02;;;;;;;2.40;0.95;;;20.40;99.90;;;;;;6212978;23;20457;-72
2022/07/07 10:29:46;;;;;;;4.88;1.17;;;20.40;99.90;;;;;;6213612;23;20218;-72
2022/07/07 10:32:15;;;;;;;2.38;0.82;;;20.40;99.90;;;;;;6213798;23;20153;-71
2022/07/07 10:35:07;;;;;;;3.00;0.70;;;20.50;99.90;;;;;;6213247;23;20169;-72
2022/07/07 10:37:49;;;;;;;1.10;0.70;;;20.60;99.90;;;;;;6197908;23;20197;-72
2022/07/07 10:40:25;;;;;;;2.53;0.90;;;20.80;99.90;;;;;;6213658;23;20152;-72
2022/07/07 10:43:05;;;;;;;1.48;0.73;;;21.00;99.90;;;;;;6213259;23;20176;-71
2022/07/07 10:45:32;;;;;;;3.60;0.95;;;21.10;99.90;;;;;;6214182;23;20521;-72
2022/07/07 10:47:58;;;;;;;1.65;0.68;;;21.20;99.90;;;;;;6213387;23;20197;-71
2022/07/07 10:50:30;;;;;;;2.22;0.60;;;21.40;99.90;;;;;;6217669;23;20187;-72
2022/07/07 10:53:00;;;;;;;2.05;0.75;;;21.40;99.90;;;;;;6215861;23;20149;-73
2022/07/07 10:55:57;;;;;;;1.45;0.60;;;21.50;99.90;;;;;;6213050;23;20157;-72
2022/07/07 10:58:58;;;;;;;1.45;0.65;;;21.60;99.90;;;;;;6224185;23;20154;-70
2022/07/07 11:01:29;;;;;;;1.58;0.68;;;21.70;99.90;;;;;;6219845;23;20240;-71
2022/07/07 11:03:54;;;;;;;1.02;0.70;;;21.80;99.90;;;;;;6215921;23;20156;-72
2022/07/07 11:06:20;;;;;;;3.50;0.90;;;21.80;99.90;;;;;;6215073;23;20153;-71
2022/07/07 11:09:06;;;;;;;1.55;0.70;;;21.90;99.90;;;;;;6215730;23;20192;-71
2022/07/07 11:11:32;;;;;;;1.40;0.90;;;22.00;99.90;;;;;;6215550;23;20180;-72
2022/07/07 11:14:09;;;;;;;2.13;1.00;;;22.00;99.90;;;;;;6218548;23;20219;-69
2022/07/07 11:16:36;;;;;;;2.55;1.15;;;22.00;99.90;;;;;;6219017;23;20141;-68
2022/07/07 11:19:04;;;;;;;2.00;1.00;;;21.90;99.90;;;;;;6217612;23;20160;-71
2022/07/07 11:21:40;;;;;;;1.33;0.70;;;21.90;99.90;;;;;;6215021;23;20168;-70
2022/07/07 11:24:26;;;;;;;2.28;0.77;;;21.80;99.90;;;;;;6217919;23;20160;-71
2022/07/07 11:27:03;;;;;;;1.58;0.80;;;21.80;99.90;;;;;;6221136;23;20231;-72
2022/07/07 11:29:32;;;;;;;1.50;0.80;;;21.70;99.90;;;;;;6216812;23;20177;-72
2022/07/07 11:32:04;;;;;;;2.63;1.00;;;21.70;99.90;;;;;;6218549;23;20238;-68
2022/07/07 11:34:50;;;;;;;2.80;0.90;;;21.70;99.90;;;;;;6215134;23;20234;-72
2022/07/07 11:37:27;;;;;;;1.20;0.70;;;21.60;99.90;;;;;;6212867;23;20164;-69
2022/07/07 11:39:55;;;;;;;1.52;0.70;;;21.70;99.90;;;;;;6214427;23;20259;-70
2022/07/07 11:42:21;;;;;;;1.30;0.80;;;21.70;99.90;;;;;;6225083;23;20153;-69
2022/07/07 11:44:46;;;;;;;1.95;0.70;;;21.80;99.90;;;;;;6216440;23;20156;-71
2022/07/07 11:47:15;;;;;;;2.88;1.17;;;21.80;99.90;;;;;;6212887;23;20180;-74
2022/07/07 11:49:43;;;;;;;3.05;0.93;;;21.90;99.90;;;;;;6213916;23;20197;-68
2022/07/07 11:52:15;;;;;;;2.47;0.90;;;22.00;99.90;;;;;;6222253;23;20172;-70
2022/07/07 11:54:48;;;;;;;3.50;1.00;;;22.00;99.90;;;;;;6213786;23;20441;-69
2022/07/07 11:57:26;;;;;;;4.38;0.98;;;22.00;99.90;;;;;;6213130;23;20169;-69
2022/07/07 11:59:51;;;;;;;2.03;0.90;;;21.90;99.90;;;;;;6215720;23;20157;-71
2022/07/07 12:02:21;;;;;;;2.97;0.95;;;21.70;99.90;;;;;;6214699;23;20161;-72
2022/07/07 12:04:53;;;;;;;1.60;0.90;;;21.50;99.90;;;;;;6220875;23;20232;-70
2022/07/07 12:07:19;;;;;;;3.92;1.02;;;21.30;99.90;;;;;;6215439;23;20178;-71
2022/07/07 12:09:45;;;;;;;5.55;1.02;;;21.20;99.90;;;;;;6224521;23;20208;-71
2022/07/07 12:12:18;;;;;;;1.90;0.90;;;21.00;99.90;;;;;;6218470;23;20180;-69
2022/07/07 12:14:49;;;;;;;0.75;0.40;;;20.90;99.90;;;;;;6220511;23;20188;-70
2022/07/07 12:17:36;;;;;;;1.95;0.63;;;20.80;99.90;;;;;;6214548;23;20192;-69
2022/07/07 12:20:05;;;;;;;0.82;0.40;;;20.70;99.90;;;;;;6218133;23;20149;-70
2022/07/07 12:22:40;;;;;;;1.52;0.60;;;20.60;99.90;;;;;;6217072;23;20173;-71
2022/07/07 12:25:12;;;;;;;1.20;0.70;;;20.60;99.90;;;;;;6216859;23;20172;-67
2022/07/07 12:28:00;;;;;;;1.08;0.60;;;20.60;99.90;;;;;;6216250;23;20156;-70
2022/07/07 12:30:32;;;;;;;0.90;0.50;;;20.70;99.90;;;;;;6215260;23;20236;-70
2022/07/07 12:32:58;;;;;;;1.92;0.95;;;20.90;99.90;;;;;;6219902;23;20154;-66
2022/07/07 12:35:33;;;;;;;3.10;0.70;;;21.00;99.90;;;;;;6215402;23;20215;-72
2022/07/07 12:38:03;;;;;;;2.92;0.90;;;21.20;99.90;;;;;;6217319;23;20157;-71
2022/07/07 12:40:33;;;;;;;1.65;0.80;;;21.40;99.90;;;;;;6214758;23;20161;-72
2022/07/07 12:43:10;;;;;;;2.90;1.00;;;21.50;99.90;;;;;;6213983;23;20153;-72
2022/07/07 12:45:39;;;;;;;2.58;0.90;;;21.50;99.90;;;;;;6213971;23;20179;-70
2022/07/07 12:48:16;;;;;;;3.45;0.95;;;21.60;99.90;;;;;;6212730;23;20263;-71
2022/07/07 12:50:42;;;;;;;1.92;0.80;;;21.50;99.90;;;;;;6213166;23;20133;-72
2022/07/07 12:53:08;;;;;;;3.78;0.77;;;21.50;99.90;;;;;;6212884;23;20171;-69
2022/07/07 12:55:35;;;;;;;1.52;0.70;;;21.50;99.90;;;;;;6214219;23;20176;-71
2022/07/07 12:58:23;;;;;;;3.50;0.80;;;21.40;99.90;;;;;;6213668;23;20153;-71
2022/07/07 13:01:00;;;;;;;4.32;1.02;;;21.40;99.90;;;;;;6212857;23;20176;-69